Mercer, WI (54547)

7:19 PM CDT on March 23, 2017 (GMT -0500)
Pine Lake ,Town of Oma | | Change Station
Active Advisory: Winter Weather Advisory

Elev 1604 ft 46.25 °N, 90.13 °W | Updated 6 seconds ago

Rain
Rain
35.8 °F
Feels Like 36 °F
N
0.4
Wind Variable Wind from East
Gusts 2.5 mph

Today
High -- | Low -- °F
--% Chance of Precip.
Yesterday
High -- | Low -- °F
Precip. -- in
Pressure 29.91 in
Visibility 10.0 miles
Clouds Overcast 2700 ft
Windchill 36 °F
Dew Point 18 °F
Humidity 49%
Rainfall 0.04 in
Snow Depth Not available.
6:56 AM 7:17 PM
Waning Crescent, 19% visible
METAR KD25 240015Z AUTO 17004KT 10SM OVC027 01/M03 A2991 RMK AO2 T00111032
Pressure 29.91 in
Visibility 10.0 miles
Clouds Overcast 2700 ft
Windchill 36 °F
Dew Point 18 °F
Humidity 49%
Rainfall 0.04 in
Snow Depth Not available.
6:56 AM 7:17 PM
Waning Crescent, 19% visible
METAR KD25 240015Z AUTO 17004KT 10SM OVC027 01/M03 A2991 RMK AO2 T00111032

Get Your Daily Forecast Email!

Thanks for signing up!

Be on the lookout for a verification email in your inbox.

You'll start receiving severe weather alerts in your inbox..

×

10-Day Weather Forecast

Almanac

Astronomy

Mar. 23, 2017 Rise Set
Actual Time
Civil Twilight
Nautical Twilight
Astronomical Twilight
Moon
Length of Visible Light
Length of Day
Tomorrow will be .
, % of the Moon is Illuminated

Today's Extremes

State Highs State Lows

Community

WunderPhotos

Upload Photos

1,962,540 photos uploaded!

WunderBlog® & News

Nearby

Air Quality

  Air Quality AQ Index Pollutant
Not available.

Snow Depth

Station Depth Elevation

Earthquake Activity

City Distance Mag. Time & Date
Minimum magnitude displayed is 2.5.

Earthquake Activity

City Distance Mag. Time & Date
Minimum magnitude displayed is 2.5.

Coastal Water Temperatures

Place Temperature

Stations

Nearby Weather Stations

Station Location Temp. Windchill Dew Point Humidity Wind Precip. Elev Updated Type
                   

Watches & Warnings

Winter Weather Advisory
Issued: 5:49 PM CDT Mar. 23, 2017 – National Weather Service

... Winter Weather Advisory remains in effect from 10 PM this
evening to 9 am CDT Friday...

* locations... parts of northwest Wisconsin, including price,
Iron, and Ashland counties, and also the Bayfield peninsula
and areas of Sawyer County east of Hayward.

* Timing... expect a wintry mix through the wee hours of Friday
morning, diminishing by mid morning Friday.

* Impacts... light ice accumulations may lead to slippery stretches
on area roads... especially across bridges and overpasses.

Precautionary/preparedness actions...

A Winter Weather Advisory for mixed precipitation means a mixture
of freezing rain and sleet is expected. Small accumulations of
ice are expected on untreated roads and sidewalks. Anyone with
travel plans should be prepared for slippery roads. Slow down
when driving and allow for extra stopping distance because you
may lose control of your vehicle if you try to slow down or stop
quickly.